Airfield :
LOGIN :

Register | Disclaimer

   EN    FR    IT 

 










Legend :    VFR   Marginal VFR   IFR   Intensive IFR   Very Intensive IFR
Visi :
Ceiling :
>= 8 km
>= 3000ft
5 to 8 km
1000 to 3000 ft
1500m to 5 km
500 to 1000 ft
800 to 1500m
200 to 500 ft
< 800m
< 200 ft
Symbols :   Thunderstorms  Fog  Heavy snow  Heavy precipitations  Wind > 20 kt
SIGMETs :     Misc.  Thunderstorms  Icing  Turbulence  Mountain Waves  Volcanic Ashes






- Airport Elevation : 162 ft
- IATA code : BOD


LFBD - Bordeaux / Merignac

CURRENT METAR :
  • 190000Z AUTO 30004KT 260V330 CAVOK 22/15 Q1018 NOSIG

EXPIRED METARs :
  • 182330Z AUTO 33003KT 300V010 CAVOK 23/15 Q1018 NOSIG
  • 182300Z AUTO 34005KT CAVOK 24/15 Q1018 NOSIG
  • 182230Z AUTO 35005KT CAVOK 24/15 Q1018 NOSIG
  • 182200Z AUTO 35005KT CAVOK 25/16 Q1018 NOSIG
  • 182130Z AUTO 36005KT 330V040 CAVOK 26/16 Q1018 NOSIG
  • 182100Z AUTO 35004KT 330V070 CAVOK 26/17 Q1018 NOSIG
  • 182030Z AUTO 34004KT 310V050 CAVOK 27/18 Q1018 NOSIG
  • 182000Z AUTO 36007KT CAVOK 27/17 Q1017 NOSIG
  • 181930Z AUTO 01009KT 330V030 CAVOK 29/16 Q1017 NOSIG
  • 181900Z AUTO 02009KT CAVOK 31/17 Q1017 NOSIG

TAF TAF LFBD
Valid from the 19 at 00:00 until the 20 at 06:00 UTC


182300Z 1900/2006 35005KT CAVOK TX33/1913Z TN18/2005Z
PROB30
TEMPO 1902/1906 4500 -SHRA FEW050CB BKN060TCU
BECMG 1912/1915 29010KT
ATIS : +33 5 57 92 81 04



MET'MAP, your aeronautical weather chart ! - Copyright ORBIFLY December 2007 - Disclaimer

ORBIFLY MET'MAP TEAM :

Programming & Development : Alexandra Zaïnal
Original concept : Baudouin d'Aumeries
Technical & hardware support : Manuel Goepfert
Assistance : Marc-Olivier Méhu




SOURCES & CREDITS :

   NOAA